Time;durP1;ratioP1;P1;durP2;ratioP2;P2;SDS_P1;SDS_P2;PMS_P1;PMS_P2;Temp;Humidity;BMP_temperature;BMP_pressure;BME280_temperature;BME280_humidity;BME280_pressure;Samples;Min_cycle;Max_cycle;Signal;HPM_P1;HPM_P2
2023/07/21 00:00:00;;;;;;;17.65;10.95;;;;;;;;;;2560395;23;20357;-92
2023/07/21 00:01:00;;;;;;;14.57;10.55;;;;;;;;;;2560428;23;20454;-92
2023/07/21 00:02:01;;;;;;;12.40;10.68;;;;;;;;;;2542982;23;20001;-93
2023/07/21 00:03:02;;;;;;;13.48;10.65;;;;;;;;;;2531503;23;20140;-93
2023/07/21 00:04:05;;;;;;;12.23;10.27;;;;;;;;;;2531651;23;20002;-93
2023/07/21 00:05:06;;;;;;;16.15;10.98;;;;;;;;;;2532362;23;20004;-92
2023/07/21 00:06:06;;;;;;;13.65;10.75;;;;;;;;;;2531670;23;20356;-92
2023/07/21 00:07:07;;;;;;;14.85;11.80;;;;;;;;;;2548337;23;20799;-91
2023/07/21 00:08:07;;;;;;;13.18;11.30;;;;;;;;;;2561032;23;19993;-91
2023/07/21 00:09:08;;;;;;;12.52;11.20;;;;;;;;;;2561209;23;20017;-92
2023/07/21 00:10:09;;;;;;;13.02;11.23;;;;;;;;;;2561200;23;20000;-94
2023/07/21 00:11:10;;;;;;;13.27;11.18;;;;;;;;;;2543865;23;20001;-93
2023/07/21 00:12:10;;;;;;;14.10;11.35;;;;;;;;;;2531719;23;20002;-91
2023/07/21 00:13:11;;;;;;;15.70;12.38;;;;;;;;;;2531878;23;20001;-91
2023/07/21 00:14:13;;;;;;;14.18;11.45;;;;;;;;;;2531885;23;20029;-91
2023/07/21 00:15:17;;;;;;;13.13;10.98;;;;;;;;;;2548410;23;20001;-91
2023/07/21 00:16:18;;;;;;;14.57;11.63;;;;;;;;;;2543786;23;20016;-92
2023/07/21 00:17:20;;;;;;;15.57;11.57;;;;;;;;;;2548004;23;20065;-92
2023/07/21 00:18:21;;;;;;;13.32;10.95;;;;;;;;;;2561217;23;20349;-91
2023/07/21 00:19:21;;;;;;;16.55;11.13;;;;;;;;;;2561008;23;20107;-92
2023/07/21 00:20:24;;;;;;;14.23;11.85;;;;;;;;;;2561210;23;19996;-91
2023/07/21 00:21:25;;;;;;;15.55;11.63;;;;;;;;;;2543822;23;20134;-91
2023/07/21 00:22:25;;;;;;;13.88;11.93;;;;;;;;;;2531471;23;20353;-91
2023/07/21 00:23:27;;;;;;;14.50;11.98;;;;;;;;;;2531444;23;20456;-92
2023/07/21 00:24:27;;;;;;;15.52;11.30;;;;;;;;;;2531789;23;20110;-92
2023/07/21 00:25:27;;;;;;;14.05;12.15;;;;;;;;;;2547759;23;20001;-92
2023/07/21 00:26:29;;;;;;;15.25;12.15;;;;;;;;;;2543823;23;20099;-92
2023/07/21 00:27:30;;;;;;;18.33;12.10;;;;;;;;;;2548164;23;20016;-93
2023/07/21 00:28:30;;;;;;;14.38;11.23;;;;;;;;;;2561275;23;20064;-92
2023/07/21 00:29:31;;;;;;;16.73;11.75;;;;;;;;;;2561024;23;20442;-92
2023/07/21 00:30:33;;;;;;;14.63;11.68;;;;;;;;;;2543895;23;20391;-92
2023/07/21 00:31:33;;;;;;;14.23;12.10;;;;;;;;;;2543721;23;20061;-93
2023/07/21 00:32:38;;;;;;;13.25;11.35;;;;;;;;;;2543922;23;20085;-92
2023/07/21 00:33:39;;;;;;;13.07;11.57;;;;;;;;;;2549019;23;20005;-92
2023/07/21 00:34:41;;;;;;;;;;;;;;;;;;2121595;23;10001512;-92
2023/07/21 00:35:42;;;;;;;14.82;11.15;;;;;;;;;;2548287;23;19952;-93
2023/07/21 00:36:45;;;;;;;14.75;11.52;;;;;;;;;;2561171;23;20063;-92
2023/07/21 00:37:46;;;;;;;17.17;11.55;;;;;;;;;;2561144;23;19993;-92
2023/07/21 00:38:47;;;;;;;15.35;11.48;;;;;;;;;;2561131;23;19989;-92
2023/07/21 00:39:48;;;;;;;17.80;12.23;;;;;;;;;;2544017;23;19994;-92
2023/07/21 00:40:48;;;;;;;19.52;12.07;;;;;;;;;;2531806;23;19994;-92
2023/07/21 00:41:49;;;;;;;16.38;12.60;;;;;;;;;;2543795;23;20319;-92
2023/07/21 00:42:49;;;;;;;13.20;11.55;;;;;;;;;;2543380;23;20068;-92
2023/07/21 00:43:50;;;;;;;16.98;12.13;;;;;;;;;;2543157;23;20061;-92
2023/07/21 00:44:51;;;;;;;17.08;12.30;;;;;;;;;;2531510;23;20008;-92
2023/07/21 00:45:52;;;;;;;16.38;11.10;;;;;;;;;;2543663;23;20005;-93
2023/07/21 00:46:52;;;;;;;14.30;11.48;;;;;;;;;;2543822;23;20033;-92
2023/07/21 00:47:54;;;;;;;13.18;11.55;;;;;;;;;;2543777;23;20057;-93
2023/07/21 00:48:54;;;;;;;14.50;11.25;;;;;;;;;;2531699;23;19998;-93
2023/07/21 00:49:56;;;;;;;15.30;11.25;;;;;;;;;;2531498;23;20001;-92
2023/07/21 00:50:57;;;;;;;14.52;10.82;;;;;;;;;;2531723;23;20002;-92
2023/07/21 00:51:58;;;;;;;14.70;10.10;;;;;;;;;;2531247;23;20453;-93
2023/07/21 00:52:58;;;;;;;13.00;9.82;;;;;;;;;;2547960;23;20335;-92
2023/07/21 00:54:00;;;;;;;13.45;10.38;;;;;;;;;;2556102;23;20371;-91
2023/07/21 00:55:01;;;;;;;14.93;10.70;;;;;;;;;;2543645;23;20402;-91
2023/07/21 00:56:02;;;;;;;12.48;10.50;;;;;;;;;;2547841;23;20104;-92
2023/07/21 00:57:03;;;;;;;11.15;9.50;;;;;;;;;;2543832;23;20374;-93
2023/07/21 00:58:04;;;;;;;12.05;10.20;;;;;;;;;;2543653;23;20008;-92
2023/07/21 00:59:05;;;;;;;12.98;10.88;;;;;;;;;;2560324;23;20001;-92
2023/07/21 01:00:10;;;;;;;16.55;10.50;;;;;;;;;;2543552;23;20040;-92
2023/07/21 01:01:11;;;;;;;11.52;10.13;;;;;;;;;;2548677;23;20076;-92
2023/07/21 01:02:11;;;;;;;16.17;10.77;;;;;;;;;;2543797;23;20316;-92
2023/07/21 01:03:13;;;;;;;14.35;10.35;;;;;;;;;;2547926;23;20017;-93
2023/07/21 01:04:14;;;;;;;14.75;10.43;;;;;;;;;;2543637;23;19997;-92
2023/07/21 01:05:15;;;;;;;16.88;11.13;;;;;;;;;;2543139;23;20061;-92
2023/07/21 01:06:15;;;;;;;12.68;10.18;;;;;;;;;;2552500;23;20016;-92
2023/07/21 01:07:16;;;;;;;11.02;9.93;;;;;;;;;;2543952;23;20423;-92
2023/07/21 01:08:19;;;;;;;13.73;10.63;;;;;;;;;;2547858;23;20036;-92
2023/07/21 01:09:22;;;;;;;13.38;10.55;;;;;;;;;;2561004;23;20115;-92
2023/07/21 01:10:23;;;;;;;17.58;10.40;;;;;;;;;;2556042;23;20470;-92
2023/07/21 01:11:27;;;;;;;11.98;10.20;;;;;;;;;;2560431;23;19997;-92
2023/07/21 01:12:28;;;;;;;12.85;10.68;;;;;;;;;;2536036;23;20207;-92
2023/07/21 01:13:30;;;;;;;13.65;10.60;;;;;;;;;;2528265;23;19998;-92
2023/07/21 01:14:30;;;;;;;15.10;10.68;;;;;;;;;;2535568;23;19990;-92
2023/07/21 01:15:33;;;;;;;14.40;11.00;;;;;;;;;;2543532;23;19993;-92
2023/07/21 01:16:43;;;;;;;13.57;10.50;;;;;;;;;;2531707;23;19990;-92
2023/07/21 01:17:44;;;;;;;13.82;10.80;;;;;;;;;;2547863;23;20506;-92
2023/07/21 01:18:45;;;;;;;11.55;9.43;;;;;;;;;;2544119;23;19989;-93
2023/07/21 01:19:48;;;;;;;12.63;10.13;;;;;;;;;;2560295;23;20414;-92
2023/07/21 01:20:50;;;;;;;13.70;9.23;;;;;;;;;;2543714;23;20001;-93
2023/07/21 01:22:08;;;;;;;11.43;9.70;;;;;;;;;;2547824;23;20068;-92
2023/07/21 01:23:29;;;;;;;14.52;10.18;;;;;;;;;;2543874;23;20001;-92
2023/07/21 01:24:44;;;;;;;11.32;9.52;;;;;;;;;;2547881;23;20438;-93
2023/07/21 01:25:45;;;;;;;11.30;9.25;;;;;;;;;;2543519;23;20025;-92
2023/07/21 01:26:48;;;;;;;12.90;9.43;;;;;;;;;;2531481;23;20021;-92
2023/07/21 01:27:52;;;;;;;11.93;8.77;;;;;;;;;;2543659;23;20092;-92
2023/07/21 01:28:53;;;;;;;16.15;9.32;;;;;;;;;;2548148;23;20068;-93
2023/07/21 01:29:56;;;;;;;11.40;9.00;;;;;;;;;;2560690;23;20020;-92
2023/07/21 01:30:57;;;;;;;13.13;10.07;;;;;;;;;;2543430;23;20046;-92
2023/07/21 01:31:59;;;;;;;15.32;9.90;;;;;;;;;;2547759;23;20021;-92
2023/07/21 01:33:01;;;;;;;11.32;9.30;;;;;;;;;;2543675;23;20390;-92
2023/07/21 01:34:06;;;;;;;12.82;9.68;;;;;;;;;;2531589;23;19994;-91
2023/07/21 01:35:09;;;;;;;17.23;9.07;;;;;;;;;;2548421;23;20016;-91
2023/07/21 01:36:09;;;;;;;14.23;9.73;;;;;;;;;;2543738;23;19998;-92
2023/07/21 01:37:12;;;;;;;13.98;10.07;;;;;;;;;;2543411;23;20001;-91
2023/07/21 01:38:13;;;;;;;12.02;9.18;;;;;;;;;;2560018;23;19992;-91
2023/07/21 01:39:13;;;;;;;14.30;9.48;;;;;;;;;;2543416;23;20507;-92
2023/07/21 01:40:15;;;;;;;13.45;9.77;;;;;;;;;;2543719;23;19997;-91
2023/07/21 01:41:16;;;;;;;11.32;9.43;;;;;;;;;;2543811;23;20005;-91
2023/07/21 01:42:19;;;;;;;13.48;9.25;;;;;;;;;;2543809;23;20418;-92
2023/07/21 01:43:19;;;;;;;10.32;8.43;;;;;;;;;;2543597;23;20458;-91
2023/07/21 01:44:23;;;;;;;13.98;9.30;;;;;;;;;;2531418;23;20008;-91
2023/07/21 01:45:24;;;;;;;13.02;9.52;;;;;;;;;;2531966;23;20002;-92
2023/07/21 01:46:24;;;;;;;13.43;9.95;;;;;;;;;;2531828;23;19997;-91
2023/07/21 01:47:26;;;;;;;12.57;9.10;;;;;;;;;;2531355;23;20033;-92
2023/07/21 01:48:27;;;;;;;11.60;9.30;;;;;;;;;;2531606;23;20181;-91
2023/07/21 01:49:27;;;;;;;13.38;9.32;;;;;;;;;;2531612;23;20081;-92
2023/07/21 01:50:29;;;;;;;12.48;9.25;;;;;;;;;;2543740;23;20406;-91
2023/07/21 01:51:31;;;;;;;12.25;9.25;;;;;;;;;;2548003;23;19989;-91
2023/07/21 01:52:34;;;;;;;13.50;9.73;;;;;;;;;;2543474;23;19998;-90
2023/07/21 01:53:37;;;;;;;13.75;10.23;;;;;;;;;;2547858;23;19996;-90
2023/07/21 01:54:51;;;;;;;15.18;9.52;;;;;;;;;;2555968;23;20135;-91
2023/07/21 01:56:00;;;;;;;12.45;9.60;;;;;;;;;;2543346;23;20021;-93
2023/07/21 01:57:06;;;;;;;14.02;9.63;;;;;;;;;;2549446;23;20439;-92
2023/07/21 01:58:08;;;;;;;13.57;9.07;;;;;;;;;;2560566;23;19993;-92
2023/07/21 01:59:10;;;;;;;12.05;9.35;;;;;;;;;;2543227;23;20028;-93
2023/07/21 02:00:13;;;;;;;14.00;9.82;;;;;;;;;;2531404;23;20056;-92
2023/07/21 02:01:16;;;;;;;13.15;8.77;;;;;;;;;;2531437;23;20002;-93
2023/07/21 02:02:19;;;;;;;14.77;9.93;;;;;;;;;;2531413;23;20069;-92
2023/07/21 02:03:21;;;;;;;10.35;9.27;;;;;;;;;;2547958;23;19993;-92
2023/07/21 02:04:22;;;;;;;14.02;9.55;;;;;;;;;;2560929;23;19993;-93
2023/07/21 02:05:25;;;;;;;13.60;9.55;;;;;;;;;;2543320;23;20002;-91
2023/07/21 02:06:26;;;;;;;13.88;8.70;;;;;;;;;;2548043;23;19997;-92
2023/07/21 02:07:26;;;;;;;11.55;8.70;;;;;;;;;;2543371;23;20410;-92
2023/07/21 02:08:27;;;;;;;13.82;8.80;;;;;;;;;;2531652;23;19998;-92
2023/07/21 02:09:27;;;;;;;10.15;8.68;;;;;;;;;;2547547;23;20069;-92
2023/07/21 02:10:28;;;;;;;10.02;8.30;;;;;;;;;;2560715;23;20445;-92
2023/07/21 02:11:28;;;;;;;10.90;8.40;;;;;;;;;;2560729;23;19995;-92
2023/07/21 02:12:29;;;;;;;14.23;8.88;;;;;;;;;;2543338;23;20498;-92
2023/07/21 02:13:29;;;;;;;12.25;9.13;;;;;;;;;;2531370;23;19993;-92
2023/07/21 02:14:29;;;;;;;10.38;8.70;;;;;;;;;;2531211;23;19995;-92
2023/07/21 02:15:30;;;;;;;10.63;8.98;;;;;;;;;;2547523;23;20032;-92
2023/07/21 02:16:31;;;;;;;10.00;8.50;;;;;;;;;;2543483;23;20001;-92
2023/07/21 02:17:33;;;;;;;13.05;8.45;;;;;;;;;;2547777;23;19989;-93
2023/07/21 02:18:35;;;;;;;14.90;9.27;;;;;;;;;;2555780;23;20028;-92
2023/07/21 02:19:35;;;;;;;11.23;8.80;;;;;;;;;;2538983;23;20053;-92
2023/07/21 02:20:36;;;;;;;11.20;8.60;;;;;;;;;;2547463;23;20023;-92
2023/07/21 02:21:36;;;;;;;10.75;9.30;;;;;;;;;;2543587;23;20012;-92
2023/07/21 02:22:39;;;;;;;10.32;8.40;;;;;;;;;;2543306;23;20012;-93
2023/07/21 02:23:40;;;;;;;11.00;8.60;;;;;;;;;;2543390;23;20002;-92
2023/07/21 02:24:41;;;;;;;10.01;8.57;;;;;;;;;;2094083;23;10180709;-92
2023/07/21 02:25:43;;;;;;;10.48;8.95;;;;;;;;;;2531445;23;19990;-91
2023/07/21 02:26:43;;;;;;;11.40;8.73;;;;;;;;;;2547319;23;20123;-91
2023/07/21 02:27:44;;;;;;;11.23;8.95;;;;;;;;;;2543312;23;20100;-93
2023/07/21 02:28:45;;;;;;;10.73;8.60;;;;;;;;;;2531590;23;20081;-92
2023/07/21 02:29:48;;;;;;;11.15;8.68;;;;;;;;;;2547371;23;19994;-93
2023/07/21 02:31:02;;;;;;;13.63;8.90;;;;;;;;;;2543487;23;20021;-93
2023/07/21 02:32:02;;;;;;;12.45;8.70;;;;;;;;;;2533605;23;20080;-92
2023/07/21 02:33:03;;;;;;;11.32;9.20;;;;;;;;;;2543491;23;20001;-93
2023/07/21 02:34:05;;;;;;;20.42;11.60;;;;;;;;;;2530771;23;20333;-93
2023/07/21 02:35:06;;;;;;;13.00;9.48;;;;;;;;;;2531254;23;20017;-91
2023/07/21 02:36:07;;;;;;;10.27;9.18;;;;;;;;;;2547698;23;19993;-92
2023/07/21 02:37:07;;;;;;;13.52;9.55;;;;;;;;;;2543195;23;20467;-93
2023/07/21 02:38:08;;;;;;;14.20;9.52;;;;;;;;;;2531245;23;20037;-92
2023/07/21 02:39:08;;;;;;;13.52;9.93;;;;;;;;;;2543345;23;19993;-92
2023/07/21 02:40:09;;;;;;;12.95;9.35;;;;;;;;;;2543331;23;19993;-91
2023/07/21 02:41:10;;;;;;;13.02;9.60;;;;;;;;;;2531639;23;20487;-91
2023/07/21 02:42:10;;;;;;;12.98;10.00;;;;;;;;;;2531046;23;20005;-92
2023/07/21 02:43:12;;;;;;;16.98;10.82;;;;;;;;;;2547656;23;19994;-91
2023/07/21 02:44:13;;;;;;;15.45;10.18;;;;;;;;;;2560790;23;19993;-91
2023/07/21 02:45:13;;;;;;;13.23;11.35;;;;;;;;;;2560788;23;20342;-90
2023/07/21 02:46:14;;;;;;;12.45;10.45;;;;;;;;;;2560534;23;20015;-90
2023/07/21 02:47:16;;;;;;;14.85;11.07;;;;;;;;;;2560883;23;20021;-90
2023/07/21 02:48:18;;;;;;;14.40;11.15;;;;;;;;;;2560546;23;20458;-93
2023/07/21 02:49:18;;;;;;;14.30;11.55;;;;;;;;;;2555478;23;20004;-91
2023/07/21 02:50:19;;;;;;;14.55;11.73;;;;;;;;;;2559741;23;20076;-91
2023/07/21 02:51:19;;;;;;;15.00;11.38;;;;;;;;;;2560472;23;20017;-90
2023/07/21 02:52:20;;;;;;;17.67;12.43;;;;;;;;;;2104578;23;10331353;-90
2023/07/21 02:53:21;;;;;;;18.33;12.77;;;;;;;;;;2531207;23;20008;-91
2023/07/21 02:54:21;;;;;;;17.50;12.68;;;;;;;;;;2547518;23;20052;-91
2023/07/21 02:55:22;;;;;;;15.77;12.30;;;;;;;;;;2560499;23;20345;-91
2023/07/21 02:56:22;;;;;;;17.52;13.20;;;;;;;;;;2560554;23;20406;-91
2023/07/21 02:57:23;;;;;;;15.80;12.98;;;;;;;;;;2543315;23;20005;-91
2023/07/21 02:58:26;;;;;;;18.77;12.43;;;;;;;;;;2547273;23;20004;-90
2023/07/21 02:59:27;;;;;;;16.35;13.07;;;;;;;;;;2543064;23;20046;-90
2023/07/21 03:00:28;;;;;;;17.20;12.38;;;;;;;;;;2543371;23;20006;-90
2023/07/21 03:01:29;;;;;;;15.75;12.20;;;;;;;;;;2543133;23;20008;-92
2023/07/21 03:02:33;;;;;;;16.42;12.70;;;;;;;;;;2531112;23;19990;-91
2023/07/21 03:03:34;;;;;;;16.52;12.73;;;;;;;;;;2543275;23;19997;-91
2023/07/21 03:04:36;;;;;;;18.42;13.05;;;;;;;;;;2531127;23;20428;-91
2023/07/21 03:05:36;;;;;;;17.70;13.63;;;;;;;;;;2551537;23;20069;-91
2023/07/21 03:06:37;;;;;;;15.52;12.18;;;;;;;;;;2560612;23;20051;-91
2023/07/21 03:07:39;;;;;;;16.90;11.93;;;;;;;;;;2543101;23;19994;-91
2023/07/21 03:08:39;;;;;;;13.85;10.32;;;;;;;;;;2531126;23;20037;-91
2023/07/21 03:09:40;;;;;;;13.90;11.02;;;;;;;;;;2531030;23;20002;-91
2023/07/21 03:10:40;;;;;;;15.38;10.48;;;;;;;;;;2547480;23;20118;-90
2023/07/21 03:11:41;;;;;;;12.05;9.57;;;;;;;;;;2560551;23;19992;-91
2023/07/21 03:12:41;;;;;;;11.05;8.75;;;;;;;;;;2543134;23;20000;-91
2023/07/21 03:13:43;;;;;;;10.98;8.82;;;;;;;;;;2543085;23;20000;-90
2023/07/21 03:14:48;;;;;;;13.77;8.88;;;;;;;;;;2547551;23;20452;-91
2023/07/21 03:15:48;;;;;;;11.90;8.23;;;;;;;;;;2543070;23;20013;-91
2023/07/21 03:16:49;;;;;;;11.25;8.43;;;;;;;;;;2531114;23;20563;-92
2023/07/21 03:17:50;;;;;;;11.93;8.43;;;;;;;;;;2531152;23;20342;-91
2023/07/21 03:18:50;;;;;;;10.27;8.27;;;;;;;;;;2530904;23;20041;-91
2023/07/21 03:19:51;;;;;;;11.50;8.23;;;;;;;;;;2547410;23;19994;-93
2023/07/21 03:20:57;;;;;;;15.43;9.60;;;;;;;;;;2560805;23;20075;-91
2023/07/21 03:21:57;;;;;;;13.98;10.43;;;;;;;;;;2543648;23;20005;-92
2023/07/21 03:22:58;;;;;;;14.05;10.70;;;;;;;;;;2531243;23;20002;-90
2023/07/21 03:23:58;;;;;;;16.88;12.95;;;;;;;;;;2531194;23;20357;-91
2023/07/21 03:24:59;;;;;;;21.58;11.93;;;;;;;;;;2547531;23;20110;-91
2023/07/21 03:25:59;;;;;;;18.83;12.52;;;;;;;;;;2543170;23;20001;-93
2023/07/21 03:27:01;;;;;;;19.77;13.02;;;;;;;;;;2543208;23;20008;-90
2023/07/21 03:28:02;;;;;;;19.13;13.43;;;;;;;;;;2543610;23;20005;-93
2023/07/21 03:29:03;;;;;;;20.17;12.52;;;;;;;;;;2543370;23;19993;-93
2023/07/21 03:30:08;;;;;;;17.48;13.00;;;;;;;;;;2559864;23;19993;-93
2023/07/21 03:31:11;;;;;;;17.75;12.80;;;;;;;;;;2561154;23;20001;-93
2023/07/21 03:32:12;;;;;;;18.75;13.07;;;;;;;;;;2560891;23;20488;-93
2023/07/21 03:33:12;;;;;;;18.92;12.88;;;;;;;;;;2543515;23;19998;-93
2023/07/21 03:34:13;;;;;;;17.50;13.02;;;;;;;;;;2547166;23;20016;-92
2023/07/21 03:35:14;;;;;;;13.32;11.23;;;;;;;;;;2543342;23;19998;-93
2023/07/21 03:36:15;;;;;;;14.07;11.68;;;;;;;;;;2531001;23;20325;-92
2023/07/21 03:37:15;;;;;;;16.27;12.13;;;;;;;;;;2530973;23;20130;-93
2023/07/21 03:38:16;;;;;;;14.95;11.35;;;;;;;;;;2530856;23;20080;-92
2023/07/21 03:39:16;;;;;;;14.90;11.57;;;;;;;;;;2547565;23;20436;-92
2023/07/21 03:40:17;;;;;;;15.80;11.68;;;;;;;;;;2543422;23;20340;-92
2023/07/21 03:41:17;;;;;;;16.90;11.25;;;;;;;;;;2531621;23;20081;-93
2023/07/21 03:42:18;;;;;;;17.85;12.15;;;;;;;;;;2531630;23;20073;-93
2023/07/21 03:43:19;;;;;;;14.95;12.20;;;;;;;;;;2531189;23;20002;-92
2023/07/21 03:44:20;;;;;;;13.65;10.45;;;;;;;;;;2547581;23;20028;-93
2023/07/21 03:45:21;;;;;;;18.10;10.77;;;;;;;;;;2543290;23;20084;-92
2023/07/21 03:46:22;;;;;;;12.80;8.82;;;;;;;;;;2547770;23;19993;-92
2023/07/21 03:47:23;;;;;;;15.73;10.85;;;;;;;;;;2543293;23;20028;-92
2023/07/21 03:48:24;;;;;;;14.88;9.98;;;;;;;;;;2547476;23;20272;-92
2023/07/21 03:49:25;;;;;;;13.93;8.88;;;;;;;;;;2542900;23;20020;-92
2023/07/21 03:50:28;;;;;;;12.70;8.85;;;;;;;;;;2530901;23;20145;-93
2023/07/21 03:51:31;;;;;;;10.35;8.55;;;;;;;;;;2531351;23;19990;-92
2023/07/21 03:52:31;;;;;;;12.73;9.25;;;;;;;;;;2531536;23;20379;-91
2023/07/21 03:53:32;;;;;;;11.57;8.52;;;;;;;;;;2547213;23;19990;-92
2023/07/21 03:54:33;;;;;;;11.18;8.10;;;;;;;;;;2560505;23;20335;-92
2023/07/21 03:55:36;;;;;;;11.43;8.35;;;;;;;;;;2542917;23;20004;-93
2023/07/21 03:56:36;;;;;;;11.60;7.88;;;;;;;;;;2547695;23;20523;-92
2023/07/21 03:57:36;;;;;;;12.27;7.30;;;;;;;;;;2555213;23;20048;-92
2023/07/21 03:58:37;;;;;;;11.48;7.75;;;;;;;;;;2543360;23;20001;-92
2023/07/21 03:59:38;;;;;;;8.95;7.78;;;;;;;;;;2531270;23;20073;-93
2023/07/21 04:00:42;;;;;;;9.07;8.15;;;;;;;;;;2547521;23;20040;-92
2023/07/21 04:01:42;;;;;;;12.65;8.63;;;;;;;;;;2543101;23;20024;-92
2023/07/21 04:02:43;;;;;;;9.30;7.88;;;;;;;;;;2547310;23;20061;-92
2023/07/21 04:03:43;;;;;;;10.50;7.47;;;;;;;;;;2555279;23;19993;-92
2023/07/21 04:04:45;;;;;;;12.90;7.93;;;;;;;;;;2559633;23;19997;-92
2023/07/21 04:05:45;;;;;;;11.10;7.60;;;;;;;;;;2543115;23;20458;-91
2023/07/21 04:06:46;;;;;;;12.00;9.18;;;;;;;;;;2543218;23;19993;-91
2023/07/21 04:07:46;;;;;;;12.45;7.88;;;;;;;;;;2559542;23;20037;-93
2023/07/21 04:08:46;;;;;;;10.20;8.00;;;;;;;;;;2560694;23;19989;-92
2023/07/21 04:09:47;;;;;;;8.13;7.25;;;;;;;;;;2560448;23;20332;-92
2023/07/21 04:10:47;;;;;;;10.30;8.38;;;;;;;;;;2542897;23;20002;-92
2023/07/21 04:11:48;;;;;;;12.13;8.88;;;;;;;;;;2547285;23;20070;-93
2023/07/21 04:12:51;;;;;;;11.40;8.30;;;;;;;;;;2543308;23;20306;-92
2023/07/21 04:13:52;;;;;;;11.38;8.05;;;;;;;;;;2547878;23;20434;-92
2023/07/21 04:14:52;;;;;;;12.38;7.97;;;;;;;;;;2543177;23;19997;-92
2023/07/21 04:15:52;;;;;;;12.73;8.07;;;;;;;;;;2531200;23;20032;-93
2023/07/21 04:16:54;;;;;;;11.35;8.05;;;;;;;;;;2542803;23;20004;-92
2023/07/21 04:17:54;;;;;;;11.43;8.30;;;;;;;;;;2543180;23;20375;-93
2023/07/21 04:18:55;;;;;;;11.32;8.68;;;;;;;;;;2547414;23;20068;-92
2023/07/21 04:19:56;;;;;;;18.38;8.75;;;;;;;;;;2543302;23;19994;-92
2023/07/21 04:20:57;;;;;;;11.48;7.88;;;;;;;;;;2547670;23;19994;-92
2023/07/21 04:22:00;;;;;;;11.57;7.88;;;;;;;;;;2543143;23;20087;-92
2023/07/21 04:23:00;;;;;;;11.18;7.68;;;;;;;;;;2532128;23;20025;-93
2023/07/21 04:24:01;;;;;;;10.88;8.13;;;;;;;;;;2547546;23;19993;-93
2023/07/21 04:25:02;;;;;;;12.07;8.48;;;;;;;;;;2560503;23;19993;-93
2023/07/21 04:26:03;;;;;;;11.88;7.70;;;;;;;;;;2560531;23;19993;-93
2023/07/21 04:27:04;;;;;;;11.40;7.85;;;;;;;;;;2543467;23;20025;-93
2023/07/21 04:28:05;;;;;;;10.45;7.88;;;;;;;;;;2547482;23;19998;-92
2023/07/21 04:29:06;;;;;;;9.57;7.68;;;;;;;;;;2543117;23;19998;-92
2023/07/21 04:30:07;;;;;;;8.80;7.78;;;;;;;;;;2530607;23;20073;-92
2023/07/21 04:31:11;;;;;;;10.48;7.95;;;;;;;;;;2531587;23;20001;-92
2023/07/21 04:32:13;;;;;;;12.55;7.95;;;;;;;;;;2543891;23;19994;-91
2023/07/21 04:33:14;;;;;;;10.48;7.75;;;;;;;;;;2543233;23;20423;-93
2023/07/21 04:34:14;;;;;;;9.75;7.38;;;;;;;;;;2547234;23;19999;-93
2023/07/21 04:35:16;;;;;;;12.55;7.82;;;;;;;;;;2560413;23;20028;-92
2023/07/21 04:36:19;;;;;;;10.02;7.28;;;;;;;;;;2543302;23;20076;-91
2023/07/21 04:37:19;;;;;;;9.68;7.47;;;;;;;;;;2547639;23;20129;-92
2023/07/21 04:38:28;;;;;;;12.63;7.65;;;;;;;;;;2560446;23;20076;-92
2023/07/21 04:39:29;;;;;;;8.20;7.32;;;;;;;;;;2542317;23;20422;-92
2023/07/21 04:40:29;;;;;;;8.45;7.43;;;;;;;;;;2547441;23;20013;-92
2023/07/21 04:41:32;;;;;;;12.18;7.60;;;;;;;;;;2560147;23;19997;-92
2023/07/21 04:42:36;;;;;;;7.82;7.03;;;;;;;;;;2560317;23;20108;-92
2023/07/21 04:43:57;;;;;;;9.43;7.72;;;;;;;;;;2560010;23;20335;-92
2023/07/21 04:44:58;;;;;;;10.43;7.32;;;;;;;;;;2560246;23;20346;-92
2023/07/21 04:45:59;;;;;;;9.32;7.18;;;;;;;;;;2542903;23;20025;-93
2023/07/21 04:46:59;;;;;;;9.02;6.57;;;;;;;;;;2547030;23;20056;-92
2023/07/21 04:48:00;;;;;;;11.50;7.18;;;;;;;;;;2560620;23;20060;-93
2023/07/21 04:49:00;;;;;;;11.10;6.68;;;;;;;;;;2542854;23;20024;-93
2023/07/21 04:50:01;;;;;;;9.30;6.15;;;;;;;;;;2545179;23;20055;-93
2023/07/21 04:51:03;;;;;;;9.65;6.60;;;;;;;;;;2561095;23;20279;-93
2023/07/21 04:52:04;;;;;;;9.70;5.72;;;;;;;;;;2561080;23;20316;-92
2023/07/21 04:53:04;;;;;;;9.23;5.90;;;;;;;;;;2543524;23;20028;-92
2023/07/21 04:54:05;;;;;;;6.90;5.68;;;;;;;;;;2531343;23;20017;-93
2023/07/21 04:55:08;;;;;;;12.35;5.38;;;;;;;;;;2547502;23;19994;-92
2023/07/21 04:56:09;;;;;;;8.20;5.40;;;;;;;;;;2543717;23;20005;-92
2023/07/21 04:57:10;;;;;;;9.95;5.95;;;;;;;;;;2547882;23;20022;-93
2023/07/21 04:58:10;;;;;;;9.55;5.82;;;;;;;;;;2543669;23;20009;-92
2023/07/21 04:59:12;;;;;;;8.25;5.90;;;;;;;;;;2548760;23;19993;-93
2023/07/21 05:00:15;;;;;;;12.23;6.00;;;;;;;;;;2544853;23;20427;-93
2023/07/21 05:01:15;;;;;;;9.40;5.75;;;;;;;;;;2532926;23;20021;-93
2023/07/21 05:02:15;;;;;;;10.55;5.13;;;;;;;;;;2532423;23;20117;-93
2023/07/21 05:03:16;;;;;;;8.35;5.00;;;;;;;;;;2548900;23;20428;-93
2023/07/21 05:04:19;;;;;;;9.02;5.22;;;;;;;;;;2544362;23;20063;-93
2023/07/21 05:05:20;;;;;;;9.60;5.50;;;;;;;;;;2533231;23;20105;-91
2023/07/21 05:06:20;;;;;;;7.90;5.05;;;;;;;;;;2548289;23;20005;-90
2023/07/21 05:07:21;;;;;;;9.82;5.35;;;;;;;;;;2543657;23;20058;-90
2023/07/21 05:08:21;;;;;;;11.98;5.03;;;;;;;;;;2547715;23;20071;-91
2023/07/21 05:09:22;;;;;;;10.02;5.47;;;;;;;;;;2543802;23;20008;-92
2023/07/21 05:10:24;;;;;;;8.77;5.53;;;;;;;;;;2531761;23;20002;-92
2023/07/21 05:11:25;;;;;;;11.05;6.10;;;;;;;;;;2532250;23;20012;-93
2023/07/21 05:12:25;;;;;;;8.35;5.80;;;;;;;;;;2547845;23;19997;-93
2023/07/21 05:13:26;;;;;;;7.15;5.32;;;;;;;;;;2543687;23;20452;-92
2023/07/21 05:14:26;;;;;;;8.63;5.18;;;;;;;;;;2531662;23;20537;-93
2023/07/21 05:15:26;;;;;;;7.72;5.10;;;;;;;;;;2547694;23;20399;-93
2023/07/21 05:16:28;;;;;;;11.07;5.57;;;;;;;;;;2543562;23;20010;-94
2023/07/21 05:17:28;;;;;;;7.03;4.88;;;;;;;;;;2548039;23;19989;-91
2023/07/21 05:18:29;;;;;;;7.03;5.22;;;;;;;;;;2543576;23;20400;-91
2023/07/21 05:19:29;;;;;;;8.23;5.88;;;;;;;;;;2547788;23;20069;-90
2023/07/21 05:20:30;;;;;;;7.63;5.43;;;;;;;;;;2560813;23;20238;-92
2023/07/21 05:21:30;;;;;;;6.97;5.35;;;;;;;;;;2544062;23;20147;-92
2023/07/21 05:22:31;;;;;;;7.70;4.13;;;;;;;;;;2531711;23;20001;-92
2023/07/21 05:23:31;;;;;;;8.57;4.70;;;;;;;;;;2547944;23;20463;-92
2023/07/21 05:24:32;;;;;;;6.85;4.72;;;;;;;;;;2543857;23;20005;-93
2023/07/21 05:25:32;;;;;;;6.35;4.80;;;;;;;;;;2531435;23;20384;-93
2023/07/21 05:26:36;;;;;;;5.35;4.60;;;;;;;;;;2548840;23;20435;-92
2023/07/21 05:27:36;;;;;;;7.63;4.88;;;;;;;;;;2544426;23;20005;-91
2023/07/21 05:28:37;;;;;;;7.55;4.85;;;;;;;;;;2549001;23;20000;-92
2023/07/21 05:29:37;;;;;;;6.95;4.90;;;;;;;;;;2544334;23;20196;-94
2023/07/21 05:30:42;;;;;;;8.63;5.05;;;;;;;;;;2544597;23;19997;-92
2023/07/21 05:31:44;;;;;;;6.30;4.22;;;;;;;;;;2545355;23;19993;-93
2023/07/21 05:32:49;;;;;;;7.78;4.80;;;;;;;;;;2561099;23;19989;-93
2023/07/21 05:33:50;;;;;;;7.07;5.00;;;;;;;;;;2549136;23;20420;-92
2023/07/21 05:34:50;;;;;;;9.13;4.75;;;;;;;;;;2547897;23;20031;-92
2023/07/21 05:35:51;;;;;;;8.35;5.10;;;;;;;;;;2544191;23;19994;-91
2023/07/21 05:36:51;;;;;;;5.78;4.43;;;;;;;;;;2543832;23;20070;-91
2023/07/21 05:37:52;;;;;;;6.63;5.40;;;;;;;;;;2543917;23;20004;-93
2023/07/21 05:38:53;;;;;;;7.72;5.10;;;;;;;;;;2531677;23;20058;-92
2023/07/21 05:39:53;;;;;;;10.85;5.85;;;;;;;;;;2545922;23;20044;-92
2023/07/21 05:40:57;;;;;;;10.05;5.55;;;;;;;;;;2560027;23;20053;-92
2023/07/21 05:41:58;;;;;;;10.32;5.15;;;;;;;;;;2564663;23;20008;-92
2023/07/21 05:42:59;;;;;;;8.32;5.10;;;;;;;;;;2547454;23;20069;-91
2023/07/21 05:43:59;;;;;;;7.18;4.65;;;;;;;;;;2550196;23;19993;-92
2023/07/21 05:45:00;;;;;;;10.08;5.22;;;;;;;;;;2125067;23;10265174;-92
2023/07/21 05:46:05;;;;;;;8.30;4.78;;;;;;;;;;2547439;23;20423;-93
2023/07/21 05:49:06;;;;;;;9.43;4.97;;;;;;;;;;2559874;23;20000;-92
2023/07/21 05:50:07;;;;;;;7.10;4.18;;;;;;;;;;2560672;23;19997;-92
2023/07/21 05:51:14;;;;;;;6.68;4.38;;;;;;;;;;2543341;23;20423;-91
2023/07/21 05:52:14;;;;;;;5.05;4.20;;;;;;;;;;2532332;23;20136;-91
2023/07/21 05:53:14;;;;;;;8.60;4.28;;;;;;;;;;2531448;23;19998;-92
2023/07/21 05:54:15;;;;;;;7.10;4.63;;;;;;;;;;2547725;23;20016;-93
2023/07/21 05:55:16;;;;;;;5.60;4.07;;;;;;;;;;2560653;23;19997;-92
2023/07/21 05:56:17;;;;;;;7.05;4.15;;;;;;;;;;2560740;23;20402;-92
2023/07/21 05:57:17;;;;;;;7.28;4.55;;;;;;;;;;2559919;23;19996;-91
2023/07/21 05:58:18;;;;;;;6.97;3.78;;;;;;;;;;2561031;23;20081;-92
2023/07/21 05:59:19;;;;;;;5.53;4.00;;;;;;;;;;2543557;23;19997;-91
2023/07/21 06:00:19;;;;;;;5.47;3.72;;;;;;;;;;2547840;23;19993;-92
2023/07/21 06:01:20;;;;;;;11.50;4.53;;;;;;;;;;2560588;23;20001;-92
2023/07/21 06:02:22;;;;;;;5.80;3.67;;;;;;;;;;2543247;23;20005;-92
2023/07/21 06:03:24;;;;;;;5.22;3.60;;;;;;;;;;2547989;23;20344;-93
2023/07/21 06:04:33;;;;;;;6.85;3.47;;;;;;;;;;2560839;23;20003;-93